sensor_id;sensor_type;location;lat;lon;timestamp;P1;durP1;ratioP1;P2;durP2;ratioP2
9888;SDS011;4983;42.112;24.738;2023-04-15T00:01:53;3.63;;;2.80;;
9888;SDS011;4983;42.112;24.738;2023-04-15T00:04:20;3.37;;;2.43;;
9888;SDS011;4983;42.112;24.738;2023-04-15T00:06:49;4.00;;;2.80;;
9888;SDS011;4983;42.112;24.738;2023-04-15T00:09:18;5.83;;;3.33;;
9888;SDS011;4983;42.112;24.738;2023-04-15T00:11:45;3.30;;;2.67;;
9888;SDS011;4983;42.112;24.738;2023-04-15T00:14:12;3.00;;;2.70;;
9888;SDS011;4983;42.112;24.738;2023-04-15T00:16:39;3.30;;;2.80;;
9888;SDS011;4983;42.112;24.738;2023-04-15T00:19:06;2.73;;;2.43;;
9888;SDS011;4983;42.112;24.738;2023-04-15T00:21:33;3.27;;;2.60;;
9888;SDS011;4983;42.112;24.738;2023-04-15T00:24:01;2.77;;;2.47;;
9888;SDS011;4983;42.112;24.738;2023-04-15T00:26:29;3.13;;;2.83;;
9888;SDS011;4983;42.112;24.738;2023-04-15T00:28:56;3.00;;;2.57;;
9888;SDS011;4983;42.112;24.738;2023-04-15T00:31:23;4.37;;;2.63;;
9888;SDS011;4983;42.112;24.738;2023-04-15T00:33:50;3.77;;;2.53;;
9888;SDS011;4983;42.112;24.738;2023-04-15T00:36:17;4.63;;;2.60;;
9888;SDS011;4983;42.112;24.738;2023-04-15T00:38:45;3.07;;;2.47;;
9888;SDS011;4983;42.112;24.738;2023-04-15T00:41:12;3.93;;;2.80;;
9888;SDS011;4983;42.112;24.738;2023-04-15T00:43:41;2.70;;;2.50;;
9888;SDS011;4983;42.112;24.738;2023-04-15T00:46:08;2.80;;;2.40;;
9888;SDS011;4983;42.112;24.738;2023-04-15T00:48:35;4.73;;;3.17;;
9888;SDS011;4983;42.112;24.738;2023-04-15T00:51:04;3.27;;;2.50;;
9888;SDS011;4983;42.112;24.738;2023-04-15T00:53:31;3.90;;;2.67;;
9888;SDS011;4983;42.112;24.738;2023-04-15T00:55:58;3.27;;;2.70;;
9888;SDS011;4983;42.112;24.738;2023-04-15T00:58:25;3.43;;;2.30;;
9888;SDS011;4983;42.112;24.738;2023-04-15T01:00:55;3.23;;;2.30;;
9888;SDS011;4983;42.112;24.738;2023-04-15T01:03:22;3.37;;;2.73;;
9888;SDS011;4983;42.112;24.738;2023-04-15T01:05:49;3.57;;;2.07;;
9888;SDS011;4983;42.112;24.738;2023-04-15T01:08:17;3.67;;;2.50;;
9888;SDS011;4983;42.112;24.738;2023-04-15T01:10:44;3.33;;;2.50;;
9888;SDS011;4983;42.112;24.738;2023-04-15T01:13:11;4.07;;;3.30;;
9888;SDS011;4983;42.112;24.738;2023-04-15T01:15:39;5.03;;;3.10;;
9888;SDS011;4983;42.112;24.738;2023-04-15T01:18:07;3.03;;;2.47;;
9888;SDS011;4983;42.112;24.738;2023-04-15T01:20:34;4.47;;;2.60;;
9888;SDS011;4983;42.112;24.738;2023-04-15T01:23:01;2.90;;;2.60;;
9888;SDS011;4983;42.112;24.738;2023-04-15T01:25:31;4.20;;;2.67;;
9888;SDS011;4983;42.112;24.738;2023-04-15T01:27:59;3.80;;;2.20;;
9888;SDS011;4983;42.112;24.738;2023-04-15T01:30:26;3.07;;;2.20;;
9888;SDS011;4983;42.112;24.738;2023-04-15T01:32:54;3.37;;;1.87;;
9888;SDS011;4983;42.112;24.738;2023-04-15T01:35:21;2.20;;;1.90;;
9888;SDS011;4983;42.112;24.738;2023-04-15T01:37:49;1.73;;;1.63;;
9888;SDS011;4983;42.112;24.738;2023-04-15T01:40:16;3.40;;;1.70;;
9888;SDS011;4983;42.112;24.738;2023-04-15T01:42:44;4.93;;;2.27;;
9888;SDS011;4983;42.112;24.738;2023-04-15T01:45:11;2.73;;;1.97;;
9888;SDS011;4983;42.112;24.738;2023-04-15T01:47:38;2.30;;;1.83;;
9888;SDS011;4983;42.112;24.738;2023-04-15T01:50:05;1.77;;;1.60;;
9888;SDS011;4983;42.112;24.738;2023-04-15T01:52:32;2.97;;;1.73;;
9888;SDS011;4983;42.112;24.738;2023-04-15T01:54:59;2.20;;;1.70;;
9888;SDS011;4983;42.112;24.738;2023-04-15T01:57:26;3.00;;;1.80;;
9888;SDS011;4983;42.112;24.738;2023-04-15T01:59:55;2.43;;;2.00;;
9888;SDS011;4983;42.112;24.738;2023-04-15T02:02:22;2.33;;;1.80;;
9888;SDS011;4983;42.112;24.738;2023-04-15T02:04:50;1.67;;;1.50;;
9888;SDS011;4983;42.112;24.738;2023-04-15T02:07:16;2.23;;;1.90;;
9888;SDS011;4983;42.112;24.738;2023-04-15T02:09:43;1.77;;;1.60;;
9888;SDS011;4983;42.112;24.738;2023-04-15T02:12:10;2.63;;;1.70;;
9888;SDS011;4983;42.112;24.738;2023-04-15T02:14:38;1.83;;;1.70;;
9888;SDS011;4983;42.112;24.738;2023-04-15T02:17:06;3.47;;;2.10;;
9888;SDS011;4983;42.112;24.738;2023-04-15T02:19:33;2.97;;;2.13;;
9888;SDS011;4983;42.112;24.738;2023-04-15T02:22:00;2.23;;;1.70;;
9888;SDS011;4983;42.112;24.738;2023-04-15T02:24:27;2.50;;;1.93;;
9888;SDS011;4983;42.112;24.738;2023-04-15T02:26:54;2.23;;;2.03;;
9888;SDS011;4983;42.112;24.738;2023-04-15T02:29:21;2.60;;;1.90;;
9888;SDS011;4983;42.112;24.738;2023-04-15T02:31:48;2.50;;;1.60;;
9888;SDS011;4983;42.112;24.738;2023-04-15T02:34:16;2.67;;;1.93;;
9888;SDS011;4983;42.112;24.738;2023-04-15T02:36:43;2.07;;;1.87;;
9888;SDS011;4983;42.112;24.738;2023-04-15T02:39:11;3.10;;;2.13;;
9888;SDS011;4983;42.112;24.738;2023-04-15T02:41:41;1.80;;;1.70;;
9888;SDS011;4983;42.112;24.738;2023-04-15T02:44:11;3.43;;;2.23;;
9888;SDS011;4983;42.112;24.738;2023-04-15T02:46:38;2.20;;;2.00;;
9888;SDS011;4983;42.112;24.738;2023-04-15T02:49:06;2.57;;;2.10;;
9888;SDS011;4983;42.112;24.738;2023-04-15T02:51:34;3.03;;;2.10;;
9888;SDS011;4983;42.112;24.738;2023-04-15T02:54:01;3.67;;;2.10;;
9888;SDS011;4983;42.112;24.738;2023-04-15T02:56:28;2.30;;;1.90;;
9888;SDS011;4983;42.112;24.738;2023-04-15T02:58:55;3.47;;;1.93;;
9888;SDS011;4983;42.112;24.738;2023-04-15T03:01:22;2.10;;;1.90;;
9888;SDS011;4983;42.112;24.738;2023-04-15T03:03:50;2.03;;;1.83;;
9888;SDS011;4983;42.112;24.738;2023-04-15T03:06:17;2.53;;;2.00;;
9888;SDS011;4983;42.112;24.738;2023-04-15T03:08:46;2.90;;;2.13;;
9888;SDS011;4983;42.112;24.738;2023-04-15T03:11:13;3.50;;;2.57;;
9888;SDS011;4983;42.112;24.738;2023-04-15T03:13:40;3.47;;;3.00;;
9888;SDS011;4983;42.112;24.738;2023-04-15T03:16:07;4.77;;;3.13;;
9888;SDS011;4983;42.112;24.738;2023-04-15T03:18:34;2.87;;;2.53;;
9888;SDS011;4983;42.112;24.738;2023-04-15T03:21:02;5.23;;;2.73;;
9888;SDS011;4983;42.112;24.738;2023-04-15T03:23:29;2.80;;;2.50;;
9888;SDS011;4983;42.112;24.738;2023-04-15T03:26:00;3.57;;;2.20;;
9888;SDS011;4983;42.112;24.738;2023-04-15T03:28:27;2.60;;;1.93;;
9888;SDS011;4983;42.112;24.738;2023-04-15T03:30:54;1.90;;;1.70;;
9888;SDS011;4983;42.112;24.738;2023-04-15T03:33:21;1.70;;;1.60;;
9888;SDS011;4983;42.112;24.738;2023-04-15T03:35:49;2.23;;;1.70;;
9888;SDS011;4983;42.112;24.738;2023-04-15T03:38:16;2.80;;;2.10;;
9888;SDS011;4983;42.112;24.738;2023-04-15T03:40:42;2.07;;;1.87;;
9888;SDS011;4983;42.112;24.738;2023-04-15T03:43:11;2.90;;;2.10;;
9888;SDS011;4983;42.112;24.738;2023-04-15T03:45:38;3.00;;;1.70;;
9888;SDS011;4983;42.112;24.738;2023-04-15T03:48:05;3.67;;;2.00;;
9888;SDS011;4983;42.112;24.738;2023-04-15T03:50:31;2.47;;;1.63;;
9888;SDS011;4983;42.112;24.738;2023-04-15T03:52:58;2.80;;;2.57;;
9888;SDS011;4983;42.112;24.738;2023-04-15T03:55:25;3.80;;;2.40;;
9888;SDS011;4983;42.112;24.738;2023-04-15T03:57:52;2.60;;;2.40;;
9888;SDS011;4983;42.112;24.738;2023-04-15T04:00:20;3.50;;;2.53;;
9888;SDS011;4983;42.112;24.738;2023-04-15T04:02:47;2.97;;;2.27;;
9888;SDS011;4983;42.112;24.738;2023-04-15T04:05:14;4.97;;;2.67;;
9888;SDS011;4983;42.112;24.738;2023-04-15T04:07:42;2.77;;;2.10;;
9888;SDS011;4983;42.112;24.738;2023-04-15T04:10:09;1.77;;;1.37;;
9888;SDS011;4983;42.112;24.738;2023-04-15T04:12:36;1.70;;;1.60;;
9888;SDS011;4983;42.112;24.738;2023-04-15T04:15:03;3.40;;;1.50;;
9888;SDS011;4983;42.112;24.738;2023-04-15T04:17:32;1.80;;;1.33;;
9888;SDS011;4983;42.112;24.738;2023-04-15T04:20:00;2.60;;;1.63;;
9888;SDS011;4983;42.112;24.738;2023-04-15T04:22:28;2.97;;;1.80;;
9888;SDS011;4983;42.112;24.738;2023-04-15T04:24:55;3.43;;;1.50;;
9888;SDS011;4983;42.112;24.738;2023-04-15T04:27:23;1.57;;;1.37;;
9888;SDS011;4983;42.112;24.738;2023-04-15T04:29:51;1.87;;;1.67;;
9888;SDS011;4983;42.112;24.738;2023-04-15T04:32:18;2.33;;;1.57;;
9888;SDS011;4983;42.112;24.738;2023-04-15T04:34:46;2.20;;;1.67;;
9888;SDS011;4983;42.112;24.738;2023-04-15T04:37:13;2.47;;;1.40;;
9888;SDS011;4983;42.112;24.738;2023-04-15T04:39:40;3.67;;;1.60;;
9888;SDS011;4983;42.112;24.738;2023-04-15T04:42:06;3.50;;;1.40;;
9888;SDS011;4983;42.112;24.738;2023-04-15T04:44:33;2.10;;;1.53;;
9888;SDS011;4983;42.112;24.738;2023-04-15T04:47:00;3.10;;;1.53;;
9888;SDS011;4983;42.112;24.738;2023-04-15T04:49:27;1.80;;;1.47;;
9888;SDS011;4983;42.112;24.738;2023-04-15T04:51:55;2.00;;;1.53;;
9888;SDS011;4983;42.112;24.738;2023-04-15T04:54:22;3.23;;;2.27;;
9888;SDS011;4983;42.112;24.738;2023-04-15T04:56:49;1.70;;;1.60;;
9888;SDS011;4983;42.112;24.738;2023-04-15T04:59:16;1.80;;;1.47;;
9888;SDS011;4983;42.112;24.738;2023-04-15T05:01:43;1.80;;;1.67;;
9888;SDS011;4983;42.112;24.738;2023-04-15T05:04:10;2.27;;;1.97;;
9888;SDS011;4983;42.112;24.738;2023-04-15T05:06:37;2.00;;;1.70;;
9888;SDS011;4983;42.112;24.738;2023-04-15T05:09:06;1.97;;;1.67;;
9888;SDS011;4983;42.112;24.738;2023-04-15T05:11:32;2.40;;;1.80;;
9888;SDS011;4983;42.112;24.738;2023-04-15T05:13:59;1.80;;;1.70;;
9888;SDS011;4983;42.112;24.738;2023-04-15T05:16:26;2.00;;;1.60;;
9888;SDS011;4983;42.112;24.738;2023-04-15T05:18:53;1.60;;;1.40;;
9888;SDS011;4983;42.112;24.738;2023-04-15T05:21:20;1.73;;;1.43;;
9888;SDS011;4983;42.112;24.738;2023-04-15T05:23:47;5.77;;;1.60;;
9888;SDS011;4983;42.112;24.738;2023-04-15T05:26:16;2.10;;;1.63;;
9888;SDS011;4983;42.112;24.738;2023-04-15T05:28:43;2.10;;;1.50;;
9888;SDS011;4983;42.112;24.738;2023-04-15T05:31:10;2.47;;;1.87;;
9888;SDS011;4983;42.112;24.738;2023-04-15T05:33:37;1.77;;;1.40;;
9888;SDS011;4983;42.112;24.738;2023-04-15T05:36:05;2.33;;;1.50;;
9888;SDS011;4983;42.112;24.738;2023-04-15T05:38:33;1.57;;;1.47;;
9888;SDS011;4983;42.112;24.738;2023-04-15T05:41:00;2.43;;;1.60;;
9888;SDS011;4983;42.112;24.738;2023-04-15T05:43:28;2.33;;;1.73;;
9888;SDS011;4983;42.112;24.738;2023-04-15T05:45:55;1.57;;;1.47;;
9888;SDS011;4983;42.112;24.738;2023-04-15T05:48:22;3.87;;;1.90;;
9888;SDS011;4983;42.112;24.738;2023-04-15T05:50:49;2.17;;;1.80;;
9888;SDS011;4983;42.112;24.738;2023-04-15T05:53:16;1.50;;;1.40;;
9888;SDS011;4983;42.112;24.738;2023-04-15T05:55:43;1.70;;;1.60;;
9888;SDS011;4983;42.112;24.738;2023-04-15T05:58:10;2.43;;;1.73;;
9888;SDS011;4983;42.112;24.738;2023-04-15T06:00:38;2.00;;;1.60;;
9888;SDS011;4983;42.112;24.738;2023-04-15T06:03:07;1.40;;;1.30;;
9888;SDS011;4983;42.112;24.738;2023-04-15T06:05:33;1.87;;;1.40;;
9888;SDS011;4983;42.112;24.738;2023-04-15T06:08:00;1.90;;;1.47;;
9888;SDS011;4983;42.112;24.738;2023-04-15T06:10:27;3.03;;;1.60;;
9888;SDS011;4983;42.112;24.738;2023-04-15T06:12:55;2.40;;;1.50;;
9888;SDS011;4983;42.112;24.738;2023-04-15T06:15:21;1.50;;;1.40;;
9888;SDS011;4983;42.112;24.738;2023-04-15T06:17:50;1.90;;;1.50;;
9888;SDS011;4983;42.112;24.738;2023-04-15T06:20:16;5.80;;;1.90;;
9888;SDS011;4983;42.112;24.738;2023-04-15T06:22:44;4.17;;;2.00;;
9888;SDS011;4983;42.112;24.738;2023-04-15T06:25:11;1.93;;;1.60;;
9888;SDS011;4983;42.112;24.738;2023-04-15T06:27:39;1.67;;;1.50;;
9888;SDS011;4983;42.112;24.738;2023-04-15T06:30:07;1.40;;;1.30;;
9888;SDS011;4983;42.112;24.738;2023-04-15T06:32:34;1.67;;;1.33;;
9888;SDS011;4983;42.112;24.738;2023-04-15T06:35:02;1.70;;;1.50;;
9888;SDS011;4983;42.112;24.738;2023-04-15T06:37:30;1.43;;;1.23;;
9888;SDS011;4983;42.112;24.738;2023-04-15T06:39:57;2.40;;;1.70;;
9888;SDS011;4983;42.112;24.738;2023-04-15T06:42:24;1.30;;;1.10;;
9888;SDS011;4983;42.112;24.738;2023-04-15T06:44:51;2.00;;;1.27;;
9888;SDS011;4983;42.112;24.738;2023-04-15T06:47:18;1.53;;;1.37;;
9888;SDS011;4983;42.112;24.738;2023-04-15T06:49:45;1.23;;;1.07;;
9888;SDS011;4983;42.112;24.738;2023-04-15T06:52:13;1.30;;;1.20;;
9888;SDS011;4983;42.112;24.738;2023-04-15T06:54:40;3.67;;;1.77;;
9888;SDS011;4983;42.112;24.738;2023-04-15T06:57:07;2.27;;;1.60;;
9888;SDS011;4983;42.112;24.738;2023-04-15T06:59:34;2.17;;;1.40;;
9888;SDS011;4983;42.112;24.738;2023-04-15T07:02:01;1.87;;;1.47;;
9888;SDS011;4983;42.112;24.738;2023-04-15T07:04:30;2.00;;;1.40;;
9888;SDS011;4983;42.112;24.738;2023-04-15T07:06:57;2.27;;;1.80;;
9888;SDS011;4983;42.112;24.738;2023-04-15T07:09:28;1.67;;;1.50;;
9888;SDS011;4983;42.112;24.738;2023-04-15T07:11:54;1.40;;;1.30;;
9888;SDS011;4983;42.112;24.738;2023-04-15T07:14:21;1.70;;;1.57;;
9888;SDS011;4983;42.112;24.738;2023-04-15T07:16:49;1.60;;;1.50;;
9888;SDS011;4983;42.112;24.738;2023-04-15T07:19:15;4.03;;;1.97;;
9888;SDS011;4983;42.112;24.738;2023-04-15T07:21:43;2.50;;;1.50;;
9888;SDS011;4983;42.112;24.738;2023-04-15T07:24:10;2.60;;;1.33;;
9888;SDS011;4983;42.112;24.738;2023-04-15T07:26:39;1.30;;;1.20;;
9888;SDS011;4983;42.112;24.738;2023-04-15T07:29:05;2.23;;;1.00;;
9888;SDS011;4983;42.112;24.738;2023-04-15T07:31:32;1.70;;;1.30;;
9888;SDS011;4983;42.112;24.738;2023-04-15T07:34:01;2.00;;;1.67;;
9888;SDS011;4983;42.112;24.738;2023-04-15T07:36:28;3.07;;;1.67;;
9888;SDS011;4983;42.112;24.738;2023-04-15T07:38:55;3.07;;;1.60;;
9888;SDS011;4983;42.112;24.738;2023-04-15T07:41:22;3.33;;;1.73;;
9888;SDS011;4983;42.112;24.738;2023-04-15T07:43:51;3.37;;;1.97;;
9888;SDS011;4983;42.112;24.738;2023-04-15T07:46:18;3.27;;;1.67;;
9888;SDS011;4983;42.112;24.738;2023-04-15T07:48:46;2.67;;;1.80;;
9888;SDS011;4983;42.112;24.738;2023-04-15T07:51:14;4.30;;;2.33;;
9888;SDS011;4983;42.112;24.738;2023-04-15T07:53:42;1.77;;;1.50;;
9888;SDS011;4983;42.112;24.738;2023-04-15T07:56:08;1.70;;;1.40;;
9888;SDS011;4983;42.112;24.738;2023-04-15T07:58:35;2.53;;;2.10;;
9888;SDS011;4983;42.112;24.738;2023-04-15T08:01:04;2.27;;;1.83;;
9888;SDS011;4983;42.112;24.738;2023-04-15T08:03:32;2.03;;;1.77;;
9888;SDS011;4983;42.112;24.738;2023-04-15T08:05:58;2.60;;;2.00;;
9888;SDS011;4983;42.112;24.738;2023-04-15T08:08:25;2.30;;;1.77;;
9888;SDS011;4983;42.112;24.738;2023-04-15T08:10:53;2.37;;;1.93;;
9888;SDS011;4983;42.112;24.738;2023-04-15T08:13:20;2.07;;;1.77;;
9888;SDS011;4983;42.112;24.738;2023-04-15T08:18:36;1.90;;;1.70;;
9888;SDS011;4983;42.112;24.738;2023-04-15T08:21:03;2.00;;;1.70;;
9888;SDS011;4983;42.112;24.738;2023-04-15T08:23:30;4.00;;;1.80;;
9888;SDS011;4983;42.112;24.738;2023-04-15T08:25:58;3.57;;;1.87;;
9888;SDS011;4983;42.112;24.738;2023-04-15T08:28:25;1.73;;;1.60;;
9888;SDS011;4983;42.112;24.738;2023-04-15T08:30:52;1.73;;;1.47;;
9888;SDS011;4983;42.112;24.738;2023-04-15T08:33:18;2.07;;;1.70;;
9888;SDS011;4983;42.112;24.738;2023-04-15T08:35:47;2.47;;;1.90;;
9888;SDS011;4983;42.112;24.738;2023-04-15T08:38:14;2.03;;;1.87;;
9888;SDS011;4983;42.112;24.738;2023-04-15T08:40:41;2.30;;;1.83;;
9888;SDS011;4983;42.112;24.738;2023-04-15T08:43:09;2.37;;;1.90;;
9888;SDS011;4983;42.112;24.738;2023-04-15T08:45:37;2.17;;;1.50;;
9888;SDS011;4983;42.112;24.738;2023-04-15T08:48:04;1.93;;;1.70;;
9888;SDS011;4983;42.112;24.738;2023-04-15T08:50:32;2.03;;;1.43;;
9888;SDS011;4983;42.112;24.738;2023-04-15T08:53:01;2.23;;;1.80;;
9888;SDS011;4983;42.112;24.738;2023-04-15T08:55:28;2.27;;;1.90;;
9888;SDS011;4983;42.112;24.738;2023-04-15T08:57:56;1.70;;;1.50;;
9888;SDS011;4983;42.112;24.738;2023-04-15T09:00:23;2.07;;;1.70;;
9888;SDS011;4983;42.112;24.738;2023-04-15T09:02:51;2.77;;;1.70;;
9888;SDS011;4983;42.112;24.738;2023-04-15T09:05:18;2.30;;;1.60;;
9888;SDS011;4983;42.112;24.738;2023-04-15T09:07:45;1.63;;;1.50;;
9888;SDS011;4983;42.112;24.738;2023-04-15T09:10:14;1.93;;;1.40;;
9888;SDS011;4983;42.112;24.738;2023-04-15T09:12:43;5.07;;;1.50;;
9888;SDS011;4983;42.112;24.738;2023-04-15T09:15:11;1.97;;;1.47;;
9888;SDS011;4983;42.112;24.738;2023-04-15T09:17:41;1.93;;;1.60;;
9888;SDS011;4983;42.112;24.738;2023-04-15T09:20:08;2.73;;;1.60;;
9888;SDS011;4983;42.112;24.738;2023-04-15T09:22:37;3.83;;;1.80;;
9888;SDS011;4983;42.112;24.738;2023-04-15T09:27:50;2.80;;;1.80;;
9888;SDS011;4983;42.112;24.738;2023-04-15T09:30:17;5.53;;;3.50;;
9888;SDS011;4983;42.112;24.738;2023-04-15T09:32:48;6.23;;;2.60;;
9888;SDS011;4983;42.112;24.738;2023-04-15T09:35:16;2.17;;;1.73;;
9888;SDS011;4983;42.112;24.738;2023-04-15T09:37:48;3.17;;;2.10;;
9888;SDS011;4983;42.112;24.738;2023-04-15T09:40:17;3.60;;;2.00;;
9888;SDS011;4983;42.112;24.738;2023-04-15T09:42:59;2.27;;;1.90;;
9888;SDS011;4983;42.112;24.738;2023-04-15T09:45:27;3.30;;;1.90;;
9888;SDS011;4983;42.112;24.738;2023-04-15T09:47:56;2.10;;;1.90;;
9888;SDS011;4983;42.112;24.738;2023-04-15T09:50:26;2.17;;;1.60;;
9888;SDS011;4983;42.112;24.738;2023-04-15T09:52:53;2.67;;;1.80;;
9888;SDS011;4983;42.112;24.738;2023-04-15T09:55:20;1.93;;;1.63;;
9888;SDS011;4983;42.112;24.738;2023-04-15T09:57:46;3.43;;;1.80;;
9888;SDS011;4983;42.112;24.738;2023-04-15T10:00:15;1.83;;;1.67;;
9888;SDS011;4983;42.112;24.738;2023-04-15T10:02:44;2.00;;;1.40;;
9888;SDS011;4983;42.112;24.738;2023-04-15T10:05:14;2.27;;;1.57;;
9888;SDS011;4983;42.112;24.738;2023-04-15T10:07:42;1.60;;;1.50;;
9888;SDS011;4983;42.112;24.738;2023-04-15T10:10:10;1.50;;;1.40;;
9888;SDS011;4983;42.112;24.738;2023-04-15T10:12:37;3.53;;;1.93;;
9888;SDS011;4983;42.112;24.738;2023-04-15T10:15:05;2.83;;;1.40;;
9888;SDS011;4983;42.112;24.738;2023-04-15T10:17:34;1.53;;;1.13;;
9888;SDS011;4983;42.112;24.738;2023-04-15T10:20:01;2.37;;;1.30;;
9888;SDS011;4983;42.112;24.738;2023-04-15T10:22:29;1.60;;;1.50;;
9888;SDS011;4983;42.112;24.738;2023-04-15T10:24:56;1.43;;;1.00;;
9888;SDS011;4983;42.112;24.738;2023-04-15T10:27:24;1.17;;;1.03;;
9888;SDS011;4983;42.112;24.738;2023-04-15T10:29:52;1.03;;;1.00;;
9888;SDS011;4983;42.112;24.738;2023-04-15T10:32:19;1.10;;;0.93;;
9888;SDS011;4983;42.112;24.738;2023-04-15T10:34:48;1.17;;;1.00;;
9888;SDS011;4983;42.112;24.738;2023-04-15T10:37:19;1.07;;;0.97;;
9888;SDS011;4983;42.112;24.738;2023-04-15T10:39:46;1.73;;;1.20;;
9888;SDS011;4983;42.112;24.738;2023-04-15T10:42:13;1.63;;;1.33;;
9888;SDS011;4983;42.112;24.738;2023-04-15T10:44:42;1.17;;;1.07;;
9888;SDS011;4983;42.112;24.738;2023-04-15T10:47:09;1.27;;;1.07;;
9888;SDS011;4983;42.112;24.738;2023-04-15T10:49:41;2.00;;;1.30;;
9888;SDS011;4983;42.112;24.738;2023-04-15T10:52:10;2.20;;;1.50;;
9888;SDS011;4983;42.112;24.738;2023-04-15T10:54:38;2.00;;;1.60;;
9888;SDS011;4983;42.112;24.738;2023-04-15T10:57:08;2.33;;;1.67;;
9888;SDS011;4983;42.112;24.738;2023-04-15T11:02:23;2.70;;;2.10;;
9888;SDS011;4983;42.112;24.738;2023-04-15T11:05:03;4.83;;;2.30;;
9888;SDS011;4983;42.112;24.738;2023-04-15T11:07:36;2.40;;;2.13;;
9888;SDS011;4983;42.112;24.738;2023-04-15T11:10:03;3.27;;;2.43;;
9888;SDS011;4983;42.112;24.738;2023-04-15T11:12:34;2.47;;;2.27;;
9888;SDS011;4983;42.112;24.738;2023-04-15T11:17:43;2.43;;;2.23;;
9888;SDS011;4983;42.112;24.738;2023-04-15T11:20:12;2.33;;;2.13;;
9888;SDS011;4983;42.112;24.738;2023-04-15T11:22:47;3.70;;;2.47;;
9888;SDS011;4983;42.112;24.738;2023-04-15T11:25:22;3.87;;;2.33;;
9888;SDS011;4983;42.112;24.738;2023-04-15T11:27:49;3.30;;;2.57;;
9888;SDS011;4983;42.112;24.738;2023-04-15T11:30:20;4.33;;;2.83;;
9888;SDS011;4983;42.112;24.738;2023-04-15T11:32:49;2.87;;;2.30;;
9888;SDS011;4983;42.112;24.738;2023-04-15T11:35:16;2.70;;;2.23;;
9888;SDS011;4983;42.112;24.738;2023-04-15T11:37:43;2.40;;;2.10;;
9888;SDS011;4983;42.112;24.738;2023-04-15T11:40:11;2.83;;;2.30;;
9888;SDS011;4983;42.112;24.738;2023-04-15T11:42:40;3.03;;;2.50;;
9888;SDS011;4983;42.112;24.738;2023-04-15T11:45:07;3.47;;;2.60;;
9888;SDS011;4983;42.112;24.738;2023-04-15T11:47:34;3.80;;;3.37;;
9888;SDS011;4983;42.112;24.738;2023-04-15T11:50:14;3.03;;;2.40;;
9888;SDS011;4983;42.112;24.738;2023-04-15T11:52:51;2.87;;;2.30;;
9888;SDS011;4983;42.112;24.738;2023-04-15T11:55:19;3.17;;;2.50;;
9888;SDS011;4983;42.112;24.738;2023-04-15T11:57:46;2.73;;;2.03;;
9888;SDS011;4983;42.112;24.738;2023-04-15T12:00:13;2.70;;;2.10;;
9888;SDS011;4983;42.112;24.738;2023-04-15T12:02:43;2.70;;;2.50;;
9888;SDS011;4983;42.112;24.738;2023-04-15T12:05:10;2.93;;;2.20;;
9888;SDS011;4983;42.112;24.738;2023-04-15T12:10:24;2.77;;;1.97;;
9888;SDS011;4983;42.112;24.738;2023-04-15T12:12:51;2.33;;;1.60;;
9888;SDS011;4983;42.112;24.738;2023-04-15T12:15:20;2.33;;;1.67;;
9888;SDS011;4983;42.112;24.738;2023-04-15T12:17:47;2.20;;;1.47;;
9888;SDS011;4983;42.112;24.738;2023-04-15T12:20:19;2.20;;;1.63;;
9888;SDS011;4983;42.112;24.738;2023-04-15T12:22:47;2.07;;;1.40;;
9888;SDS011;4983;42.112;24.738;2023-04-15T12:25:14;1.47;;;1.20;;
9888;SDS011;4983;42.112;24.738;2023-04-15T12:27:50;3.40;;;1.47;;
9888;SDS011;4983;42.112;24.738;2023-04-15T12:30:17;1.70;;;1.30;;
9888;SDS011;4983;42.112;24.738;2023-04-15T12:32:44;2.20;;;1.20;;
9888;SDS011;4983;42.112;24.738;2023-04-15T12:35:13;1.53;;;1.20;;
9888;SDS011;4983;42.112;24.738;2023-04-15T12:37:40;3.17;;;1.30;;
9888;SDS011;4983;42.112;24.738;2023-04-15T12:40:08;1.50;;;1.30;;
9888;SDS011;4983;42.112;24.738;2023-04-15T12:42:35;2.23;;;1.33;;
9888;SDS011;4983;42.112;24.738;2023-04-15T12:45:04;1.33;;;1.10;;
9888;SDS011;4983;42.112;24.738;2023-04-15T12:47:31;1.50;;;1.10;;
9888;SDS011;4983;42.112;24.738;2023-04-15T12:49:59;2.10;;;1.20;;
9888;SDS011;4983;42.112;24.738;2023-04-15T12:52:25;2.25;;;1.30;;
9888;SDS011;4983;42.112;24.738;2023-04-15T12:54:53;1.43;;;1.07;;
9888;SDS011;4983;42.112;24.738;2023-04-15T12:57:19;1.30;;;1.10;;
9888;SDS011;4983;42.112;24.738;2023-04-15T12:59:47;1.87;;;1.27;;
9888;SDS011;4983;42.112;24.738;2023-04-15T13:02:15;2.57;;;1.23;;
9888;SDS011;4983;42.112;24.738;2023-04-15T13:04:44;3.30;;;1.10;;
9888;SDS011;4983;42.112;24.738;2023-04-15T13:07:12;1.10;;;1.00;;
9888;SDS011;4983;42.112;24.738;2023-04-15T13:09:39;1.67;;;1.30;;
9888;SDS011;4983;42.112;24.738;2023-04-15T13:12:08;1.20;;;1.10;;
9888;SDS011;4983;42.112;24.738;2023-04-15T13:14:36;1.67;;;1.10;;
9888;SDS011;4983;42.112;24.738;2023-04-15T13:17:04;2.70;;;1.20;;
9888;SDS011;4983;42.112;24.738;2023-04-15T13:19:38;1.27;;;1.10;;
9888;SDS011;4983;42.112;24.738;2023-04-15T13:22:06;1.10;;;1.00;;
9888;SDS011;4983;42.112;24.738;2023-04-15T13:24:35;1.20;;;0.90;;
9888;SDS011;4983;42.112;24.738;2023-04-15T13:27:02;1.20;;;1.10;;
9888;SDS011;4983;42.112;24.738;2023-04-15T13:29:30;1.50;;;1.10;;
9888;SDS011;4983;42.112;24.738;2023-04-15T13:31:57;1.13;;;0.90;;
9888;SDS011;4983;42.112;24.738;2023-04-15T13:34:25;1.30;;;1.20;;
9888;SDS011;4983;42.112;24.738;2023-04-15T13:36:53;1.43;;;1.00;;
9888;SDS011;4983;42.112;24.738;2023-04-15T13:39:20;1.57;;;1.10;;
9888;SDS011;4983;42.112;24.738;2023-04-15T13:41:47;1.57;;;1.20;;
9888;SDS011;4983;42.112;24.738;2023-04-15T13:44:15;1.10;;;1.00;;
9888;SDS011;4983;42.112;24.738;2023-04-15T13:46:42;1.10;;;1.00;;
9888;SDS011;4983;42.112;24.738;2023-04-15T13:49:09;2.20;;;1.00;;
9888;SDS011;4983;42.112;24.738;2023-04-15T13:51:36;2.03;;;0.90;;
9888;SDS011;4983;42.112;24.738;2023-04-15T13:54:04;1.93;;;1.30;;
9888;SDS011;4983;42.112;24.738;2023-04-15T13:56:31;1.70;;;1.10;;
9888;SDS011;4983;42.112;24.738;2023-04-15T13:58:58;6.23;;;1.60;;
9888;SDS011;4983;42.112;24.738;2023-04-15T14:01:26;1.67;;;1.27;;
9888;SDS011;4983;42.112;24.738;2023-04-15T14:03:53;1.53;;;0.80;;
9888;SDS011;4983;42.112;24.738;2023-04-15T14:06:20;1.00;;;0.87;;
9888;SDS011;4983;42.112;24.738;2023-04-15T14:08:47;1.63;;;1.20;;
9888;SDS011;4983;42.112;24.738;2023-04-15T14:11:16;0.90;;;0.90;;
9888;SDS011;4983;42.112;24.738;2023-04-15T14:13:44;2.17;;;1.07;;
9888;SDS011;4983;42.112;24.738;2023-04-15T14:16:11;1.67;;;0.90;;
9888;SDS011;4983;42.112;24.738;2023-04-15T14:18:38;1.10;;;1.00;;
9888;SDS011;4983;42.112;24.738;2023-04-15T14:21:07;1.80;;;1.33;;
9888;SDS011;4983;42.112;24.738;2023-04-15T14:23:34;1.60;;;1.50;;
9888;SDS011;4983;42.112;24.738;2023-04-15T14:26:00;4.10;;;1.33;;
9888;SDS011;4983;42.112;24.738;2023-04-15T14:28:29;2.30;;;1.00;;
9888;SDS011;4983;42.112;24.738;2023-04-15T14:30:57;1.30;;;1.13;;
9888;SDS011;4983;42.112;24.738;2023-04-15T14:33:24;2.23;;;1.10;;
9888;SDS011;4983;42.112;24.738;2023-04-15T14:35:51;1.57;;;1.00;;
9888;SDS011;4983;42.112;24.738;2023-04-15T14:38:18;1.43;;;0.80;;
9888;SDS011;4983;42.112;24.738;2023-04-15T14:40:46;1.13;;;1.03;;
9888;SDS011;4983;42.112;24.738;2023-04-15T14:43:14;1.10;;;1.00;;
9888;SDS011;4983;42.112;24.738;2023-04-15T14:45:42;1.63;;;1.00;;
9888;SDS011;4983;42.112;24.738;2023-04-15T14:48:09;1.53;;;0.90;;
9888;SDS011;4983;42.112;24.738;2023-04-15T14:50:36;1.20;;;1.00;;
9888;SDS011;4983;42.112;24.738;2023-04-15T14:53:04;3.00;;;1.00;;
9888;SDS011;4983;42.112;24.738;2023-04-15T14:55:32;1.30;;;0.90;;
9888;SDS011;4983;42.112;24.738;2023-04-15T14:57:59;1.50;;;1.00;;
9888;SDS011;4983;42.112;24.738;2023-04-15T15:00:26;1.27;;;0.80;;
9888;SDS011;4983;42.112;24.738;2023-04-15T15:02:54;1.43;;;1.20;;
9888;SDS011;4983;42.112;24.738;2023-04-15T15:05:21;1.13;;;1.00;;
9888;SDS011;4983;42.112;24.738;2023-04-15T15:07:48;2.57;;;1.30;;
9888;SDS011;4983;42.112;24.738;2023-04-15T15:10:15;2.07;;;1.20;;
9888;SDS011;4983;42.112;24.738;2023-04-15T15:12:42;1.83;;;1.30;;
9888;SDS011;4983;42.112;24.738;2023-04-15T15:15:09;2.53;;;1.17;;
9888;SDS011;4983;42.112;24.738;2023-04-15T15:17:36;3.20;;;1.30;;